sensor_id;sensor_type;location;lat;lon;timestamp;P1;durP1;ratioP1;P2;durP2;ratioP2
58338;SDS011;68636;52.704;6.536;2024-01-30T00:02:12;32.47;;;15.60;;
58338;SDS011;68636;52.704;6.536;2024-01-30T00:04:38;30.33;;;15.38;;
58338;SDS011;68636;52.704;6.536;2024-01-30T00:07:04;27.77;;;14.50;;
58338;SDS011;68636;52.704;6.536;2024-01-30T00:09:30;34.88;;;16.40;;
58338;SDS011;68636;52.704;6.536;2024-01-30T00:11:56;34.38;;;15.88;;
58338;SDS011;68636;52.704;6.536;2024-01-30T00:14:22;32.75;;;15.77;;
58338;SDS011;68636;52.704;6.536;2024-01-30T00:16:48;35.80;;;16.00;;
58338;SDS011;68636;52.704;6.536;2024-01-30T00:19:15;32.55;;;16.10;;
58338;SDS011;68636;52.704;6.536;2024-01-30T00:21:41;31.10;;;15.18;;
58338;SDS011;68636;52.704;6.536;2024-01-30T00:24:07;31.60;;;15.00;;
58338;SDS011;68636;52.704;6.536;2024-01-30T00:26:33;33.83;;;15.13;;
58338;SDS011;68636;52.704;6.536;2024-01-30T00:28:59;29.17;;;14.45;;
58338;SDS011;68636;52.704;6.536;2024-01-30T00:31:25;25.60;;;14.20;;
58338;SDS011;68636;52.704;6.536;2024-01-30T00:33:51;27.92;;;14.30;;
58338;SDS011;68636;52.704;6.536;2024-01-30T00:36:18;33.78;;;15.27;;
58338;SDS011;68636;52.704;6.536;2024-01-30T00:38:44;30.10;;;14.82;;
58338;SDS011;68636;52.704;6.536;2024-01-30T00:41:10;30.77;;;14.60;;
58338;SDS011;68636;52.704;6.536;2024-01-30T00:43:36;28.27;;;14.35;;
58338;SDS011;68636;52.704;6.536;2024-01-30T00:46:02;32.22;;;14.80;;
58338;SDS011;68636;52.704;6.536;2024-01-30T00:48:28;31.67;;;13.85;;
58338;SDS011;68636;52.704;6.536;2024-01-30T00:50:55;32.70;;;14.85;;
58338;SDS011;68636;52.704;6.536;2024-01-30T00:53:21;33.70;;;15.95;;
58338;SDS011;68636;52.704;6.536;2024-01-30T00:55:47;32.95;;;15.20;;
58338;SDS011;68636;52.704;6.536;2024-01-30T00:58:13;31.52;;;15.93;;
58338;SDS011;68636;52.704;6.536;2024-01-30T01:00:39;31.50;;;14.63;;
58338;SDS011;68636;52.704;6.536;2024-01-30T01:03:05;35.88;;;15.40;;
58338;SDS011;68636;52.704;6.536;2024-01-30T01:05:31;30.75;;;14.35;;
58338;SDS011;68636;52.704;6.536;2024-01-30T01:07:57;27.75;;;13.85;;
58338;SDS011;68636;52.704;6.536;2024-01-30T01:10:23;32.45;;;14.88;;
58338;SDS011;68636;52.704;6.536;2024-01-30T01:12:49;31.20;;;15.07;;
58338;SDS011;68636;52.704;6.536;2024-01-30T01:15:15;33.05;;;14.57;;
58338;SDS011;68636;52.704;6.536;2024-01-30T01:17:41;29.75;;;14.20;;
58338;SDS011;68636;52.704;6.536;2024-01-30T01:20:08;34.88;;;14.85;;
58338;SDS011;68636;52.704;6.536;2024-01-30T01:22:35;28.63;;;14.48;;
58338;SDS011;68636;52.704;6.536;2024-01-30T01:25:03;34.33;;;14.88;;
58338;SDS011;68636;52.704;6.536;2024-01-30T01:27:32;34.13;;;15.32;;
58338;SDS011;68636;52.704;6.536;2024-01-30T01:32:25;33.43;;;13.87;;
58338;SDS011;68636;52.704;6.536;2024-01-30T01:34:51;33.33;;;15.32;;
58338;SDS011;68636;52.704;6.536;2024-01-30T01:37:17;32.13;;;13.82;;
58338;SDS011;68636;52.704;6.536;2024-01-30T01:39:43;33.30;;;14.10;;
58338;SDS011;68636;52.704;6.536;2024-01-30T01:42:09;29.20;;;13.90;;
58338;SDS011;68636;52.704;6.536;2024-01-30T01:44:35;31.50;;;13.73;;
58338;SDS011;68636;52.704;6.536;2024-01-30T01:47:01;30.33;;;14.70;;
58338;SDS011;68636;52.704;6.536;2024-01-30T01:49:28;29.75;;;13.73;;
58338;SDS011;68636;52.704;6.536;2024-01-30T01:51:55;27.70;;;12.85;;
58338;SDS011;68636;52.704;6.536;2024-01-30T01:54:25;28.98;;;13.65;;
58338;SDS011;68636;52.704;6.536;2024-01-30T01:56:52;30.20;;;13.75;;
58338;SDS011;68636;52.704;6.536;2024-01-30T01:59:18;25.87;;;13.10;;
58338;SDS011;68636;52.704;6.536;2024-01-30T02:01:45;27.63;;;13.82;;
58338;SDS011;68636;52.704;6.536;2024-01-30T02:04:14;28.30;;;13.55;;
58338;SDS011;68636;52.704;6.536;2024-01-30T02:06:40;25.73;;;12.47;;
58338;SDS011;68636;52.704;6.536;2024-01-30T02:09:06;28.15;;;13.52;;
58338;SDS011;68636;52.704;6.536;2024-01-30T02:14:03;30.43;;;12.50;;
58338;SDS011;68636;52.704;6.536;2024-01-30T02:16:29;27.23;;;13.07;;
58338;SDS011;68636;52.704;6.536;2024-01-30T02:18:55;26.02;;;12.88;;
58338;SDS011;68636;52.704;6.536;2024-01-30T02:21:21;25.50;;;12.63;;
58338;SDS011;68636;52.704;6.536;2024-01-30T02:23:47;29.02;;;13.05;;
58338;SDS011;68636;52.704;6.536;2024-01-30T02:26:14;24.90;;;12.95;;
58338;SDS011;68636;52.704;6.536;2024-01-30T02:28:41;25.25;;;13.60;;
58338;SDS011;68636;52.704;6.536;2024-01-30T02:31:07;25.77;;;12.73;;
58338;SDS011;68636;52.704;6.536;2024-01-30T02:33:33;24.75;;;12.75;;
58338;SDS011;68636;52.704;6.536;2024-01-30T02:35:59;23.33;;;12.32;;
58338;SDS011;68636;52.704;6.536;2024-01-30T02:38:25;28.43;;;13.37;;
58338;SDS011;68636;52.704;6.536;2024-01-30T02:40:52;27.58;;;14.48;;
58338;SDS011;68636;52.704;6.536;2024-01-30T02:43:18;25.63;;;13.32;;
58338;SDS011;68636;52.704;6.536;2024-01-30T02:45:44;25.67;;;13.63;;
58338;SDS011;68636;52.704;6.536;2024-01-30T02:48:10;26.85;;;12.65;;
58338;SDS011;68636;52.704;6.536;2024-01-30T02:50:36;25.52;;;12.45;;
58338;SDS011;68636;52.704;6.536;2024-01-30T02:53:02;26.52;;;12.57;;
58338;SDS011;68636;52.704;6.536;2024-01-30T02:55:28;21.67;;;11.90;;
58338;SDS011;68636;52.704;6.536;2024-01-30T02:57:55;24.33;;;13.23;;
58338;SDS011;68636;52.704;6.536;2024-01-30T03:00:21;24.80;;;13.07;;
58338;SDS011;68636;52.704;6.536;2024-01-30T03:02:47;26.42;;;12.80;;
58338;SDS011;68636;52.704;6.536;2024-01-30T03:05:13;24.95;;;13.27;;
58338;SDS011;68636;52.704;6.536;2024-01-30T03:07:39;30.08;;;12.88;;
58338;SDS011;68636;52.704;6.536;2024-01-30T03:10:05;29.13;;;14.65;;
58338;SDS011;68636;52.704;6.536;2024-01-30T03:12:31;30.27;;;13.65;;
58338;SDS011;68636;52.704;6.536;2024-01-30T03:14:58;26.38;;;13.77;;
58338;SDS011;68636;52.704;6.536;2024-01-30T03:17:24;26.58;;;13.35;;
58338;SDS011;68636;52.704;6.536;2024-01-30T03:19:50;29.17;;;12.75;;
58338;SDS011;68636;52.704;6.536;2024-01-30T03:22:16;26.83;;;13.47;;
58338;SDS011;68636;52.704;6.536;2024-01-30T03:24:42;24.88;;;13.63;;
58338;SDS011;68636;52.704;6.536;2024-01-30T03:27:08;27.60;;;13.20;;
58338;SDS011;68636;52.704;6.536;2024-01-30T03:29:35;25.45;;;12.63;;
58338;SDS011;68636;52.704;6.536;2024-01-30T03:32:01;25.98;;;13.50;;
58338;SDS011;68636;52.704;6.536;2024-01-30T03:34:28;27.42;;;13.02;;
58338;SDS011;68636;52.704;6.536;2024-01-30T03:36:55;27.08;;;12.98;;
58338;SDS011;68636;52.704;6.536;2024-01-30T03:39:21;24.75;;;12.23;;
58338;SDS011;68636;52.704;6.536;2024-01-30T03:41:47;24.05;;;12.63;;
58338;SDS011;68636;52.704;6.536;2024-01-30T03:44:13;24.67;;;12.82;;
58338;SDS011;68636;52.704;6.536;2024-01-30T03:46:39;22.33;;;11.32;;
58338;SDS011;68636;52.704;6.536;2024-01-30T03:49:05;25.10;;;12.13;;
58338;SDS011;68636;52.704;6.536;2024-01-30T03:51:31;24.35;;;11.77;;
58338;SDS011;68636;52.704;6.536;2024-01-30T03:53:57;25.08;;;12.60;;
58338;SDS011;68636;52.704;6.536;2024-01-30T03:56:23;26.40;;;11.70;;
58338;SDS011;68636;52.704;6.536;2024-01-30T03:58:51;25.02;;;12.63;;
58338;SDS011;68636;52.704;6.536;2024-01-30T04:01:17;25.02;;;12.65;;
58338;SDS011;68636;52.704;6.536;2024-01-30T04:03:43;24.65;;;12.07;;
58338;SDS011;68636;52.704;6.536;2024-01-30T04:06:10;21.10;;;11.02;;
58338;SDS011;68636;52.704;6.536;2024-01-30T04:08:36;23.08;;;12.02;;
58338;SDS011;68636;52.704;6.536;2024-01-30T04:11:03;21.80;;;11.40;;
58338;SDS011;68636;52.704;6.536;2024-01-30T04:13:31;25.95;;;11.95;;
58338;SDS011;68636;52.704;6.536;2024-01-30T04:15:58;22.33;;;11.73;;
58338;SDS011;68636;52.704;6.536;2024-01-30T04:18:25;23.15;;;11.95;;
58338;SDS011;68636;52.704;6.536;2024-01-30T04:20:51;21.58;;;11.27;;
58338;SDS011;68636;52.704;6.536;2024-01-30T04:23:17;22.77;;;11.27;;
58338;SDS011;68636;52.704;6.536;2024-01-30T04:25:43;23.35;;;11.82;;
58338;SDS011;68636;52.704;6.536;2024-01-30T04:28:09;23.25;;;11.68;;
58338;SDS011;68636;52.704;6.536;2024-01-30T04:30:37;23.92;;;11.25;;
58338;SDS011;68636;52.704;6.536;2024-01-30T04:33:03;23.40;;;11.32;;
58338;SDS011;68636;52.704;6.536;2024-01-30T04:35:29;22.10;;;12.10;;
58338;SDS011;68636;52.704;6.536;2024-01-30T04:37:56;29.63;;;11.48;;
58338;SDS011;68636;52.704;6.536;2024-01-30T04:40:22;20.45;;;11.02;;
58338;SDS011;68636;52.704;6.536;2024-01-30T04:42:48;22.80;;;10.93;;
58338;SDS011;68636;52.704;6.536;2024-01-30T04:45:14;19.35;;;10.88;;
58338;SDS011;68636;52.704;6.536;2024-01-30T04:47:40;22.75;;;11.05;;
58338;SDS011;68636;52.704;6.536;2024-01-30T04:50:06;19.27;;;10.70;;
58338;SDS011;68636;52.704;6.536;2024-01-30T04:52:33;21.25;;;11.50;;
58338;SDS011;68636;52.704;6.536;2024-01-30T04:54:59;24.85;;;12.20;;
58338;SDS011;68636;52.704;6.536;2024-01-30T04:57:26;20.63;;;11.20;;
58338;SDS011;68636;52.704;6.536;2024-01-30T04:59:52;23.55;;;11.20;;
58338;SDS011;68636;52.704;6.536;2024-01-30T05:02:18;21.23;;;10.88;;
58338;SDS011;68636;52.704;6.536;2024-01-30T05:04:44;22.13;;;11.32;;
58338;SDS011;68636;52.704;6.536;2024-01-30T05:07:10;22.08;;;11.68;;
58338;SDS011;68636;52.704;6.536;2024-01-30T05:09:37;23.00;;;10.63;;
58338;SDS011;68636;52.704;6.536;2024-01-30T05:12:03;19.75;;;11.20;;
58338;SDS011;68636;52.704;6.536;2024-01-30T05:14:29;23.30;;;10.80;;
58338;SDS011;68636;52.704;6.536;2024-01-30T05:16:55;21.33;;;11.40;;
58338;SDS011;68636;52.704;6.536;2024-01-30T05:19:21;20.13;;;10.73;;
58338;SDS011;68636;52.704;6.536;2024-01-30T05:21:48;22.80;;;11.07;;
58338;SDS011;68636;52.704;6.536;2024-01-30T05:24:14;22.75;;;10.93;;
58338;SDS011;68636;52.704;6.536;2024-01-30T05:26:41;23.13;;;11.30;;
58338;SDS011;68636;52.704;6.536;2024-01-30T05:29:07;21.45;;;10.98;;
58338;SDS011;68636;52.704;6.536;2024-01-30T05:31:33;22.45;;;11.82;;
58338;SDS011;68636;52.704;6.536;2024-01-30T05:33:59;22.80;;;11.60;;
58338;SDS011;68636;52.704;6.536;2024-01-30T05:36:26;21.95;;;11.07;;
58338;SDS011;68636;52.704;6.536;2024-01-30T05:38:52;21.23;;;10.85;;
58338;SDS011;68636;52.704;6.536;2024-01-30T05:41:19;21.83;;;11.32;;
58338;SDS011;68636;52.704;6.536;2024-01-30T05:43:48;26.73;;;11.02;;
58338;SDS011;68636;52.704;6.536;2024-01-30T05:46:18;23.75;;;10.77;;
58338;SDS011;68636;52.704;6.536;2024-01-30T05:48:45;22.25;;;11.32;;
58338;SDS011;68636;52.704;6.536;2024-01-30T05:51:11;20.58;;;10.90;;
58338;SDS011;68636;52.704;6.536;2024-01-30T05:53:37;23.73;;;10.27;;
58338;SDS011;68636;52.704;6.536;2024-01-30T05:56:03;23.83;;;11.07;;
58338;SDS011;68636;52.704;6.536;2024-01-30T05:58:29;22.58;;;11.02;;
58338;SDS011;68636;52.704;6.536;2024-01-30T06:00:59;21.33;;;10.27;;
58338;SDS011;68636;52.704;6.536;2024-01-30T06:03:25;19.42;;;10.77;;
58338;SDS011;68636;52.704;6.536;2024-01-30T06:05:51;21.70;;;11.00;;
58338;SDS011;68636;52.704;6.536;2024-01-30T06:08:17;23.50;;;11.45;;
58338;SDS011;68636;52.704;6.536;2024-01-30T06:10:43;23.53;;;10.90;;
58338;SDS011;68636;52.704;6.536;2024-01-30T06:13:09;22.27;;;11.00;;
58338;SDS011;68636;52.704;6.536;2024-01-30T06:15:35;23.20;;;10.30;;
58338;SDS011;68636;52.704;6.536;2024-01-30T06:18:01;23.90;;;11.90;;
58338;SDS011;68636;52.704;6.536;2024-01-30T06:20:27;20.23;;;10.88;;
58338;SDS011;68636;52.704;6.536;2024-01-30T06:22:53;23.83;;;11.25;;
58338;SDS011;68636;52.704;6.536;2024-01-30T06:25:20;20.70;;;11.00;;
58338;SDS011;68636;52.704;6.536;2024-01-30T06:27:46;21.35;;;10.57;;
58338;SDS011;68636;52.704;6.536;2024-01-30T06:30:12;20.10;;;9.95;;
58338;SDS011;68636;52.704;6.536;2024-01-30T06:32:38;24.30;;;10.47;;
58338;SDS011;68636;52.704;6.536;2024-01-30T06:35:05;23.33;;;10.60;;
58338;SDS011;68636;52.704;6.536;2024-01-30T06:37:31;21.58;;;10.77;;
58338;SDS011;68636;52.704;6.536;2024-01-30T06:39:57;21.13;;;10.88;;
58338;SDS011;68636;52.704;6.536;2024-01-30T06:42:23;22.70;;;10.65;;
58338;SDS011;68636;52.704;6.536;2024-01-30T06:44:49;23.45;;;10.50;;
58338;SDS011;68636;52.704;6.536;2024-01-30T06:47:15;20.17;;;10.48;;
58338;SDS011;68636;52.704;6.536;2024-01-30T06:49:41;22.65;;;11.05;;
58338;SDS011;68636;52.704;6.536;2024-01-30T06:52:09;20.60;;;10.38;;
58338;SDS011;68636;52.704;6.536;2024-01-30T06:54:35;22.52;;;11.23;;
58338;SDS011;68636;52.704;6.536;2024-01-30T06:57:01;20.50;;;10.30;;
58338;SDS011;68636;52.704;6.536;2024-01-30T06:59:28;19.53;;;10.73;;
58338;SDS011;68636;52.704;6.536;2024-01-30T07:01:54;22.25;;;9.52;;
58338;SDS011;68636;52.704;6.536;2024-01-30T07:04:20;19.77;;;10.07;;
58338;SDS011;68636;52.704;6.536;2024-01-30T07:06:46;21.33;;;9.63;;
58338;SDS011;68636;52.704;6.536;2024-01-30T07:09:12;19.60;;;9.45;;
58338;SDS011;68636;52.704;6.536;2024-01-30T07:11:39;20.45;;;9.95;;
58338;SDS011;68636;52.704;6.536;2024-01-30T07:14:05;18.20;;;9.68;;
58338;SDS011;68636;52.704;6.536;2024-01-30T07:16:31;19.60;;;9.73;;
58338;SDS011;68636;52.704;6.536;2024-01-30T07:18:57;20.50;;;10.10;;
58338;SDS011;68636;52.704;6.536;2024-01-30T07:21:23;18.38;;;9.70;;
58338;SDS011;68636;52.704;6.536;2024-01-30T07:23:53;18.55;;;9.65;;
58338;SDS011;68636;52.704;6.536;2024-01-30T07:26:20;19.10;;;9.68;;
58338;SDS011;68636;52.704;6.536;2024-01-30T07:28:47;18.77;;;9.63;;
58338;SDS011;68636;52.704;6.536;2024-01-30T07:31:13;20.30;;;10.60;;
58338;SDS011;68636;52.704;6.536;2024-01-30T07:33:39;20.95;;;10.23;;
58338;SDS011;68636;52.704;6.536;2024-01-30T07:36:05;20.45;;;9.50;;
58338;SDS011;68636;52.704;6.536;2024-01-30T07:38:31;20.35;;;9.82;;
58338;SDS011;68636;52.704;6.536;2024-01-30T07:40:57;19.80;;;10.13;;
58338;SDS011;68636;52.704;6.536;2024-01-30T07:43:23;21.77;;;10.23;;
58338;SDS011;68636;52.704;6.536;2024-01-30T07:45:49;17.70;;;9.65;;
58338;SDS011;68636;52.704;6.536;2024-01-30T07:48:16;18.10;;;10.18;;
58338;SDS011;68636;52.704;6.536;2024-01-30T07:50:42;20.73;;;9.83;;
58338;SDS011;68636;52.704;6.536;2024-01-30T07:53:08;19.73;;;10.13;;
58338;SDS011;68636;52.704;6.536;2024-01-30T07:55:34;18.58;;;10.05;;
58338;SDS011;68636;52.704;6.536;2024-01-30T07:58:00;17.55;;;9.07;;
58338;SDS011;68636;52.704;6.536;2024-01-30T08:00:26;19.50;;;9.32;;
58338;SDS011;68636;52.704;6.536;2024-01-30T08:02:54;17.33;;;9.27;;
58338;SDS011;68636;52.704;6.536;2024-01-30T08:05:20;18.60;;;9.32;;
58338;SDS011;68636;52.704;6.536;2024-01-30T08:07:50;18.65;;;8.88;;
58338;SDS011;68636;52.704;6.536;2024-01-30T08:10:16;16.52;;;8.52;;
58338;SDS011;68636;52.704;6.536;2024-01-30T08:12:45;15.85;;;7.65;;
58338;SDS011;68636;52.704;6.536;2024-01-30T08:15:12;16.30;;;8.02;;
58338;SDS011;68636;52.704;6.536;2024-01-30T08:17:38;19.10;;;8.43;;
58338;SDS011;68636;52.704;6.536;2024-01-30T08:20:04;20.40;;;8.63;;
58338;SDS011;68636;52.704;6.536;2024-01-30T08:22:31;19.63;;;8.75;;
58338;SDS011;68636;52.704;6.536;2024-01-30T08:24:57;18.83;;;8.43;;
58338;SDS011;68636;52.704;6.536;2024-01-30T08:27:23;18.92;;;8.48;;
58338;SDS011;68636;52.704;6.536;2024-01-30T08:29:49;19.00;;;8.50;;
58338;SDS011;68636;52.704;6.536;2024-01-30T08:32:15;13.90;;;7.97;;
58338;SDS011;68636;52.704;6.536;2024-01-30T08:34:41;18.10;;;7.75;;
58338;SDS011;68636;52.704;6.536;2024-01-30T08:37:08;19.30;;;8.32;;
58338;SDS011;68636;52.704;6.536;2024-01-30T08:39:34;19.15;;;8.13;;
58338;SDS011;68636;52.704;6.536;2024-01-30T08:42:00;15.75;;;8.23;;
58338;SDS011;68636;52.704;6.536;2024-01-30T08:44:26;14.13;;;7.70;;
58338;SDS011;68636;52.704;6.536;2024-01-30T08:46:52;19.15;;;8.00;;
58338;SDS011;68636;52.704;6.536;2024-01-30T08:49:19;17.25;;;8.32;;
58338;SDS011;68636;52.704;6.536;2024-01-30T08:54:12;17.33;;;9.57;;
58338;SDS011;68636;52.704;6.536;2024-01-30T08:56:38;14.77;;;7.88;;
58338;SDS011;68636;52.704;6.536;2024-01-30T08:59:04;18.98;;;9.23;;
58338;SDS011;68636;52.704;6.536;2024-01-30T09:01:30;15.48;;;7.70;;
58338;SDS011;68636;52.704;6.536;2024-01-30T09:03:56;17.67;;;7.90;;
58338;SDS011;68636;52.704;6.536;2024-01-30T09:06:23;14.48;;;7.82;;
58338;SDS011;68636;52.704;6.536;2024-01-30T09:08:53;17.35;;;7.63;;
58338;SDS011;68636;52.704;6.536;2024-01-30T09:11:19;18.42;;;7.63;;
58338;SDS011;68636;52.704;6.536;2024-01-30T09:13:45;13.75;;;7.32;;
58338;SDS011;68636;52.704;6.536;2024-01-30T09:16:11;13.95;;;7.72;;
58338;SDS011;68636;52.704;6.536;2024-01-30T09:18:37;15.43;;;8.10;;
58338;SDS011;68636;52.704;6.536;2024-01-30T09:21:04;15.90;;;7.53;;
58338;SDS011;68636;52.704;6.536;2024-01-30T09:23:30;16.88;;;7.93;;
58338;SDS011;68636;52.704;6.536;2024-01-30T09:25:56;16.08;;;7.80;;
58338;SDS011;68636;52.704;6.536;2024-01-30T09:28:22;15.30;;;7.75;;
58338;SDS011;68636;52.704;6.536;2024-01-30T09:30:48;14.15;;;7.85;;
58338;SDS011;68636;52.704;6.536;2024-01-30T09:33:14;15.32;;;8.20;;
58338;SDS011;68636;52.704;6.536;2024-01-30T09:35:41;19.65;;;7.95;;
58338;SDS011;68636;52.704;6.536;2024-01-30T09:38:07;15.48;;;8.50;;
58338;SDS011;68636;52.704;6.536;2024-01-30T09:40:33;18.67;;;8.90;;
58338;SDS011;68636;52.704;6.536;2024-01-30T09:42:59;14.50;;;6.78;;
58338;SDS011;68636;52.704;6.536;2024-01-30T09:45:25;18.35;;;8.02;;
58338;SDS011;68636;52.704;6.536;2024-01-30T09:47:52;13.85;;;7.70;;
58338;SDS011;68636;52.704;6.536;2024-01-30T09:50:18;14.98;;;8.15;;
58338;SDS011;68636;52.704;6.536;2024-01-30T09:52:45;15.27;;;7.72;;
58338;SDS011;68636;52.704;6.536;2024-01-30T09:55:11;17.17;;;7.13;;
58338;SDS011;68636;52.704;6.536;2024-01-30T09:57:37;14.80;;;6.67;;
58338;SDS011;68636;52.704;6.536;2024-01-30T10:00:05;14.75;;;7.72;;
58338;SDS011;68636;52.704;6.536;2024-01-30T10:02:33;19.95;;;8.20;;
58338;SDS011;68636;52.704;6.536;2024-01-30T10:05:00;15.93;;;7.65;;
58338;SDS011;68636;52.704;6.536;2024-01-30T10:07:26;15.38;;;7.35;;
58338;SDS011;68636;52.704;6.536;2024-01-30T10:09:52;17.67;;;8.13;;
58338;SDS011;68636;52.704;6.536;2024-01-30T10:12:20;14.90;;;8.02;;
58338;SDS011;68636;52.704;6.536;2024-01-30T10:14:46;17.42;;;8.05;;
58338;SDS011;68636;52.704;6.536;2024-01-30T10:17:12;15.23;;;7.60;;
58338;SDS011;68636;52.704;6.536;2024-01-30T10:19:39;13.30;;;7.20;;
58338;SDS011;68636;52.704;6.536;2024-01-30T10:22:06;21.95;;;8.15;;
58338;SDS011;68636;52.704;6.536;2024-01-30T10:24:35;13.55;;;7.30;;
58338;SDS011;68636;52.704;6.536;2024-01-30T10:27:02;17.33;;;7.20;;
58338;SDS011;68636;52.704;6.536;2024-01-30T10:29:28;14.25;;;7.32;;
58338;SDS011;68636;52.704;6.536;2024-01-30T10:31:58;13.67;;;7.40;;
58338;SDS011;68636;52.704;6.536;2024-01-30T10:34:25;17.27;;;7.80;;
58338;SDS011;68636;52.704;6.536;2024-01-30T10:36:51;18.30;;;7.75;;
58338;SDS011;68636;52.704;6.536;2024-01-30T10:39:20;20.23;;;7.57;;
58338;SDS011;68636;52.704;6.536;2024-01-30T10:41:47;14.32;;;7.28;;
58338;SDS011;68636;52.704;6.536;2024-01-30T10:44:14;15.60;;;7.57;;
58338;SDS011;68636;52.704;6.536;2024-01-30T10:46:43;18.63;;;8.05;;
58338;SDS011;68636;52.704;6.536;2024-01-30T10:49:10;14.63;;;7.40;;
58338;SDS011;68636;52.704;6.536;2024-01-30T10:54:04;15.75;;;7.20;;
58338;SDS011;68636;52.704;6.536;2024-01-30T10:56:30;15.25;;;7.63;;
58338;SDS011;68636;52.704;6.536;2024-01-30T10:58:58;17.17;;;7.43;;
58338;SDS011;68636;52.704;6.536;2024-01-30T11:01:24;14.00;;;7.18;;
58338;SDS011;68636;52.704;6.536;2024-01-30T11:03:51;17.10;;;7.70;;
58338;SDS011;68636;52.704;6.536;2024-01-30T11:06:19;17.17;;;7.13;;
58338;SDS011;68636;52.704;6.536;2024-01-30T11:09:04;16.63;;;7.63;;
58338;SDS011;68636;52.704;6.536;2024-01-30T11:11:47;19.85;;;7.60;;
58338;SDS011;68636;52.704;6.536;2024-01-30T11:14:14;15.52;;;8.15;;
58338;SDS011;68636;52.704;6.536;2024-01-30T11:16:40;15.68;;;7.55;;
58338;SDS011;68636;52.704;6.536;2024-01-30T11:19:10;17.58;;;7.78;;
58338;SDS011;68636;52.704;6.536;2024-01-30T11:21:43;16.30;;;7.25;;
58338;SDS011;68636;52.704;6.536;2024-01-30T11:24:09;14.75;;;7.75;;
58338;SDS011;68636;52.704;6.536;2024-01-30T11:26:36;17.15;;;8.52;;
58338;SDS011;68636;52.704;6.536;2024-01-30T11:29:07;16.20;;;8.25;;
58338;SDS011;68636;52.704;6.536;2024-01-30T11:31:34;16.50;;;8.20;;
58338;SDS011;68636;52.704;6.536;2024-01-30T11:34:00;16.33;;;8.32;;
58338;SDS011;68636;52.704;6.536;2024-01-30T11:36:27;15.55;;;7.35;;
58338;SDS011;68636;52.704;6.536;2024-01-30T11:38:54;15.17;;;8.40;;
58338;SDS011;68636;52.704;6.536;2024-01-30T11:41:20;18.65;;;9.07;;
58338;SDS011;68636;52.704;6.536;2024-01-30T11:43:51;17.90;;;8.25;;
58338;SDS011;68636;52.704;6.536;2024-01-30T11:46:18;18.77;;;8.15;;
58338;SDS011;68636;52.704;6.536;2024-01-30T11:48:44;17.48;;;8.23;;
58338;SDS011;68636;52.704;6.536;2024-01-30T11:51:11;17.52;;;7.90;;
58338;SDS011;68636;52.704;6.536;2024-01-30T11:53:37;14.25;;;7.80;;
58338;SDS011;68636;52.704;6.536;2024-01-30T11:56:05;17.45;;;8.40;;
58338;SDS011;68636;52.704;6.536;2024-01-30T11:58:33;15.82;;;8.55;;
58338;SDS011;68636;52.704;6.536;2024-01-30T12:00:59;18.98;;;8.27;;
58338;SDS011;68636;52.704;6.536;2024-01-30T12:03:25;16.75;;;8.13;;
58338;SDS011;68636;52.704;6.536;2024-01-30T12:05:55;17.03;;;8.27;;
58338;SDS011;68636;52.704;6.536;2024-01-30T12:08:21;14.10;;;7.63;;
58338;SDS011;68636;52.704;6.536;2024-01-30T12:10:55;17.38;;;8.23;;
58338;SDS011;68636;52.704;6.536;2024-01-30T12:13:21;20.10;;;9.18;;
58338;SDS011;68636;52.704;6.536;2024-01-30T12:15:47;16.13;;;8.43;;
58338;SDS011;68636;52.704;6.536;2024-01-30T12:18:13;13.55;;;7.55;;
58338;SDS011;68636;52.704;6.536;2024-01-30T12:20:39;14.88;;;7.85;;
58338;SDS011;68636;52.704;6.536;2024-01-30T12:23:06;17.98;;;8.32;;
58338;SDS011;68636;52.704;6.536;2024-01-30T12:25:32;18.13;;;8.40;;
58338;SDS011;68636;52.704;6.536;2024-01-30T12:27:58;16.20;;;7.82;;
58338;SDS011;68636;52.704;6.536;2024-01-30T12:30:24;16.63;;;7.68;;
58338;SDS011;68636;52.704;6.536;2024-01-30T12:32:50;16.90;;;7.85;;
58338;SDS011;68636;52.704;6.536;2024-01-30T12:35:17;15.32;;;7.25;;
58338;SDS011;68636;52.704;6.536;2024-01-30T12:37:43;17.05;;;8.05;;
58338;SDS011;68636;52.704;6.536;2024-01-30T12:40:18;13.02;;;5.97;;
58338;SDS011;68636;52.704;6.536;2024-01-30T12:42:46;17.95;;;7.43;;
58338;SDS011;68636;52.704;6.536;2024-01-30T12:45:15;15.05;;;6.38;;
58338;SDS011;68636;52.704;6.536;2024-01-30T12:47:45;12.10;;;5.47;;
58338;SDS011;68636;52.704;6.536;2024-01-30T12:50:11;15.65;;;5.65;;
58338;SDS011;68636;52.704;6.536;2024-01-30T12:52:40;12.23;;;4.40;;
58338;SDS011;68636;52.704;6.536;2024-01-30T12:55:06;11.00;;;5.05;;
58338;SDS011;68636;52.704;6.536;2024-01-30T12:57:32;10.40;;;5.40;;
58338;SDS011;68636;52.704;6.536;2024-01-30T12:59:59;13.27;;;4.63;;
58338;SDS011;68636;52.704;6.536;2024-01-30T13:02:25;12.40;;;5.38;;
58338;SDS011;68636;52.704;6.536;2024-01-30T13:04:53;7.72;;;3.25;;
58338;SDS011;68636;52.704;6.536;2024-01-30T13:07:19;12.02;;;4.10;;
58338;SDS011;68636;52.704;6.536;2024-01-30T13:09:45;8.52;;;3.22;;
58338;SDS011;68636;52.704;6.536;2024-01-30T13:12:12;9.98;;;3.55;;
58338;SDS011;68636;52.704;6.536;2024-01-30T13:14:38;9.10;;;3.30;;
58338;SDS011;68636;52.704;6.536;2024-01-30T13:17:04;5.85;;;2.80;;
58338;SDS011;68636;52.704;6.536;2024-01-30T13:19:31;7.78;;;3.08;;
58338;SDS011;68636;52.704;6.536;2024-01-30T13:21:57;9.40;;;3.17;;
58338;SDS011;68636;52.704;6.536;2024-01-30T13:24:23;5.67;;;2.20;;
58338;SDS011;68636;52.704;6.536;2024-01-30T13:26:49;6.80;;;2.78;;
58338;SDS011;68636;52.704;6.536;2024-01-30T13:29:16;5.72;;;2.67;;
58338;SDS011;68636;52.704;6.536;2024-01-30T13:31:42;5.78;;;2.47;;
58338;SDS011;68636;52.704;6.536;2024-01-30T13:34:09;6.40;;;2.38;;
58338;SDS011;68636;52.704;6.536;2024-01-30T13:36:35;4.25;;;2.10;;
58338;SDS011;68636;52.704;6.536;2024-01-30T13:39:01;6.07;;;2.70;;
58338;SDS011;68636;52.704;6.536;2024-01-30T13:41:27;9.25;;;3.40;;
58338;SDS011;68636;52.704;6.536;2024-01-30T13:43:55;5.45;;;2.00;;
58338;SDS011;68636;52.704;6.536;2024-01-30T13:46:21;5.70;;;2.33;;
58338;SDS011;68636;52.704;6.536;2024-01-30T13:48:47;5.65;;;2.33;;
58338;SDS011;68636;52.704;6.536;2024-01-30T13:51:13;8.10;;;1.92;;
58338;SDS011;68636;52.704;6.536;2024-01-30T13:53:41;5.78;;;1.90;;
58338;SDS011;68636;52.704;6.536;2024-01-30T13:56:07;6.93;;;2.00;;
58338;SDS011;68636;52.704;6.536;2024-01-30T13:58:34;6.53;;;1.73;;
58338;SDS011;68636;52.704;6.536;2024-01-30T14:03:27;3.97;;;1.10;;
58338;SDS011;68636;52.704;6.536;2024-01-30T14:05:54;5.18;;;1.05;;
58338;SDS011;68636;52.704;6.536;2024-01-30T14:08:20;2.80;;;0.70;;
58338;SDS011;68636;52.704;6.536;2024-01-30T14:10:49;3.35;;;0.90;;
58338;SDS011;68636;52.704;6.536;2024-01-30T14:13:15;4.68;;;0.90;;
58338;SDS011;68636;52.704;6.536;2024-01-30T14:15:41;3.53;;;0.80;;
58338;SDS011;68636;52.704;6.536;2024-01-30T14:18:07;3.63;;;0.90;;
58338;SDS011;68636;52.704;6.536;2024-01-30T14:20:34;5.22;;;0.90;;
58338;SDS011;68636;52.704;6.536;2024-01-30T14:23:00;3.30;;;1.00;;
58338;SDS011;68636;52.704;6.536;2024-01-30T14:25:26;4.97;;;0.93;;
58338;SDS011;68636;52.704;6.536;2024-01-30T14:27:52;3.95;;;1.05;;
58338;SDS011;68636;52.704;6.536;2024-01-30T14:30:18;3.38;;;0.80;;
58338;SDS011;68636;52.704;6.536;2024-01-30T14:32:44;1.83;;;0.70;;
58338;SDS011;68636;52.704;6.536;2024-01-30T14:35:11;4.63;;;0.70;;
58338;SDS011;68636;52.704;6.536;2024-01-30T14:37:37;3.53;;;0.80;;